sensor_id;sensor_type;location;lat;lon;timestamp;P1;durP1;ratioP1;P2;durP2;ratioP2
27491;SDS011;14927;51.210;6.838;2022-10-18T00:01:07;5.65;;;3.70;;
27491;SDS011;14927;51.210;6.838;2022-10-18T00:03:52;6.60;;;3.88;;
27491;SDS011;14927;51.210;6.838;2022-10-18T00:06:37;4.55;;;3.58;;
27491;SDS011;14927;51.210;6.838;2022-10-18T00:09:21;5.22;;;3.83;;
27491;SDS011;14927;51.210;6.838;2022-10-18T00:12:06;9.95;;;3.80;;
27491;SDS011;14927;51.210;6.838;2022-10-18T00:14:50;6.15;;;3.80;;
27491;SDS011;14927;51.210;6.838;2022-10-18T00:17:36;4.15;;;3.53;;
27491;SDS011;14927;51.210;6.838;2022-10-18T00:20:21;4.63;;;3.72;;
27491;SDS011;14927;51.210;6.838;2022-10-18T00:23:06;6.57;;;3.78;;
27491;SDS011;14927;51.210;6.838;2022-10-18T00:26:01;4.93;;;3.45;;
27491;SDS011;14927;51.210;6.838;2022-10-18T00:28:58;10.00;;;3.88;;
27491;SDS011;14927;51.210;6.838;2022-10-18T00:31:46;5.38;;;3.97;;
27491;SDS011;14927;51.210;6.838;2022-10-18T00:34:31;6.80;;;3.97;;
27491;SDS011;14927;51.210;6.838;2022-10-18T00:37:15;11.55;;;4.03;;
27491;SDS011;14927;51.210;6.838;2022-10-18T00:40:01;8.27;;;3.60;;
27491;SDS011;14927;51.210;6.838;2022-10-18T00:42:45;7.20;;;3.83;;
27491;SDS011;14927;51.210;6.838;2022-10-18T00:45:30;9.23;;;3.80;;
27491;SDS011;14927;51.210;6.838;2022-10-18T00:48:14;4.80;;;3.85;;
27491;SDS011;14927;51.210;6.838;2022-10-18T00:51:01;6.53;;;3.60;;
27491;SDS011;14927;51.210;6.838;2022-10-18T00:53:45;8.57;;;3.83;;
27491;SDS011;14927;51.210;6.838;2022-10-18T00:56:31;6.05;;;3.80;;
27491;SDS011;14927;51.210;6.838;2022-10-18T00:59:17;5.55;;;3.83;;
27491;SDS011;14927;51.210;6.838;2022-10-18T01:02:06;6.30;;;3.60;;
27491;SDS011;14927;51.210;6.838;2022-10-18T01:04:51;6.45;;;3.60;;
27491;SDS011;14927;51.210;6.838;2022-10-18T01:17:30;5.05;;;3.63;;
27491;SDS011;14927;51.210;6.838;2022-10-18T01:30:40;9.05;;;4.05;;
27491;SDS011;14927;51.210;6.838;2022-10-18T01:36:34;7.38;;;4.40;;
27491;SDS011;14927;51.210;6.838;2022-10-18T01:39:25;6.47;;;4.22;;
27491;SDS011;14927;51.210;6.838;2022-10-18T01:42:19;6.75;;;4.25;;
27491;SDS011;14927;51.210;6.838;2022-10-18T01:45:04;10.80;;;4.28;;
27491;SDS011;14927;51.210;6.838;2022-10-18T01:47:51;11.13;;;3.50;;
27491;SDS011;14927;51.210;6.838;2022-10-18T01:50:36;8.77;;;3.67;;
27491;SDS011;14927;51.210;6.838;2022-10-18T01:53:31;8.85;;;4.40;;
27491;SDS011;14927;51.210;6.838;2022-10-18T01:56:19;8.75;;;4.32;;
27491;SDS011;14927;51.210;6.838;2022-10-18T01:59:32;4.30;;;3.70;;
27491;SDS011;14927;51.210;6.838;2022-10-18T02:08:56;6.82;;;4.00;;
27491;SDS011;14927;51.210;6.838;2022-10-18T02:11:52;8.15;;;4.35;;
27491;SDS011;14927;51.210;6.838;2022-10-18T02:14:38;6.93;;;4.32;;
27491;SDS011;14927;51.210;6.838;2022-10-18T02:17:24;5.15;;;4.47;;
27491;SDS011;14927;51.210;6.838;2022-10-18T02:20:12;5.10;;;4.60;;
27491;SDS011;14927;51.210;6.838;2022-10-18T02:23:03;5.65;;;3.63;;
27491;SDS011;14927;51.210;6.838;2022-10-18T02:25:51;7.13;;;4.13;;
27491;SDS011;14927;51.210;6.838;2022-10-18T02:28:36;6.32;;;4.25;;
27491;SDS011;14927;51.210;6.838;2022-10-18T02:34:18;6.20;;;4.63;;
27491;SDS011;14927;51.210;6.838;2022-10-18T02:37:06;8.10;;;4.60;;
27491;SDS011;14927;51.210;6.838;2022-10-18T02:39:52;11.65;;;4.75;;
27491;SDS011;14927;51.210;6.838;2022-10-18T02:42:43;5.63;;;4.72;;
27491;SDS011;14927;51.210;6.838;2022-10-18T02:45:32;10.00;;;4.30;;
27491;SDS011;14927;51.210;6.838;2022-10-18T02:48:17;5.13;;;4.18;;
27491;SDS011;14927;51.210;6.838;2022-10-18T02:51:01;10.15;;;4.00;;
27491;SDS011;14927;51.210;6.838;2022-10-18T02:53:46;9.20;;;4.38;;
27491;SDS011;14927;51.210;6.838;2022-10-18T02:56:31;6.60;;;4.57;;
27491;SDS011;14927;51.210;6.838;2022-10-18T02:59:15;10.43;;;5.30;;
27491;SDS011;14927;51.210;6.838;2022-10-18T03:02:00;10.07;;;4.40;;
27491;SDS011;14927;51.210;6.838;2022-10-18T03:04:44;9.55;;;4.88;;
27491;SDS011;14927;51.210;6.838;2022-10-18T03:07:29;6.30;;;4.70;;
27491;SDS011;14927;51.210;6.838;2022-10-18T03:10:14;5.30;;;4.20;;
27491;SDS011;14927;51.210;6.838;2022-10-18T03:12:58;10.80;;;5.68;;
27491;SDS011;14927;51.210;6.838;2022-10-18T03:15:43;13.43;;;5.13;;
27491;SDS011;14927;51.210;6.838;2022-10-18T03:18:28;6.53;;;4.57;;
27491;SDS011;14927;51.210;6.838;2022-10-18T03:21:12;6.32;;;5.20;;
27491;SDS011;14927;51.210;6.838;2022-10-18T03:23:57;5.85;;;4.60;;
27491;SDS011;14927;51.210;6.838;2022-10-18T03:26:42;4.75;;;4.28;;
27491;SDS011;14927;51.210;6.838;2022-10-18T03:29:27;7.18;;;4.70;;
27491;SDS011;14927;51.210;6.838;2022-10-18T03:32:11;8.75;;;4.53;;
27491;SDS011;14927;51.210;6.838;2022-10-18T03:34:56;5.70;;;4.43;;
27491;SDS011;14927;51.210;6.838;2022-10-18T03:37:41;8.80;;;5.50;;
27491;SDS011;14927;51.210;6.838;2022-10-18T03:40:25;6.78;;;4.75;;
27491;SDS011;14927;51.210;6.838;2022-10-18T03:43:10;11.10;;;4.72;;
27491;SDS011;14927;51.210;6.838;2022-10-18T03:45:54;7.13;;;4.90;;
27491;SDS011;14927;51.210;6.838;2022-10-18T03:48:39;7.00;;;4.90;;
27491;SDS011;14927;51.210;6.838;2022-10-18T03:51:24;9.00;;;5.72;;
27491;SDS011;14927;51.210;6.838;2022-10-18T03:54:08;6.70;;;4.85;;
27491;SDS011;14927;51.210;6.838;2022-10-18T03:56:53;10.50;;;5.47;;
27491;SDS011;14927;51.210;6.838;2022-10-18T03:59:37;8.18;;;5.45;;
27491;SDS011;14927;51.210;6.838;2022-10-18T04:02:22;6.85;;;4.63;;
27491;SDS011;14927;51.210;6.838;2022-10-18T04:05:06;7.63;;;4.72;;
27491;SDS011;14927;51.210;6.838;2022-10-18T04:07:51;7.57;;;5.78;;
27491;SDS011;14927;51.210;6.838;2022-10-18T04:10:36;7.63;;;5.90;;
27491;SDS011;14927;51.210;6.838;2022-10-18T04:13:21;7.13;;;5.10;;
27491;SDS011;14927;51.210;6.838;2022-10-18T04:16:05;9.85;;;5.47;;
27491;SDS011;14927;51.210;6.838;2022-10-18T04:18:50;9.25;;;5.25;;
27491;SDS011;14927;51.210;6.838;2022-10-18T04:21:35;7.13;;;5.30;;
27491;SDS011;14927;51.210;6.838;2022-10-18T04:24:19;7.15;;;5.28;;
27491;SDS011;14927;51.210;6.838;2022-10-18T04:27:04;7.20;;;5.20;;
27491;SDS011;14927;51.210;6.838;2022-10-18T04:29:49;9.30;;;5.95;;
27491;SDS011;14927;51.210;6.838;2022-10-18T04:32:34;8.40;;;6.22;;
27491;SDS011;14927;51.210;6.838;2022-10-18T04:35:18;6.88;;;5.47;;
27491;SDS011;14927;51.210;6.838;2022-10-18T04:38:07;7.90;;;5.90;;
27491;SDS011;14927;51.210;6.838;2022-10-18T04:40:52;7.05;;;5.97;;
27491;SDS011;14927;51.210;6.838;2022-10-18T04:43:36;9.45;;;6.38;;
27491;SDS011;14927;51.210;6.838;2022-10-18T04:46:21;6.18;;;5.57;;
27491;SDS011;14927;51.210;6.838;2022-10-18T04:49:05;8.05;;;5.80;;
27491;SDS011;14927;51.210;6.838;2022-10-18T04:51:50;8.23;;;6.13;;
27491;SDS011;14927;51.210;6.838;2022-10-18T04:54:35;7.68;;;6.20;;
27491;SDS011;14927;51.210;6.838;2022-10-18T04:57:19;8.55;;;5.93;;
27491;SDS011;14927;51.210;6.838;2022-10-18T05:00:04;11.93;;;6.38;;
27491;SDS011;14927;51.210;6.838;2022-10-18T05:05:41;10.85;;;6.43;;
27491;SDS011;14927;51.210;6.838;2022-10-18T05:08:28;9.68;;;7.07;;
27491;SDS011;14927;51.210;6.838;2022-10-18T05:11:15;10.10;;;6.70;;
27491;SDS011;14927;51.210;6.838;2022-10-18T05:14:00;11.43;;;7.18;;
27491;SDS011;14927;51.210;6.838;2022-10-18T05:16:44;10.07;;;6.32;;
27491;SDS011;14927;51.210;6.838;2022-10-18T05:19:29;10.20;;;7.35;;
27491;SDS011;14927;51.210;6.838;2022-10-18T05:22:13;10.55;;;7.25;;
27491;SDS011;14927;51.210;6.838;2022-10-18T05:24:58;10.63;;;7.03;;
27491;SDS011;14927;51.210;6.838;2022-10-18T05:27:43;14.98;;;7.88;;
27491;SDS011;14927;51.210;6.838;2022-10-18T05:30:27;9.50;;;6.30;;
27491;SDS011;14927;51.210;6.838;2022-10-18T05:33:12;11.27;;;7.07;;
27491;SDS011;14927;51.210;6.838;2022-10-18T05:35:56;9.00;;;6.70;;
27491;SDS011;14927;51.210;6.838;2022-10-18T05:38:41;10.77;;;7.07;;
27491;SDS011;14927;51.210;6.838;2022-10-18T05:41:26;11.45;;;7.03;;
27491;SDS011;14927;51.210;6.838;2022-10-18T05:44:11;10.32;;;6.80;;
27491;SDS011;14927;51.210;6.838;2022-10-18T05:46:55;9.07;;;7.07;;
27491;SDS011;14927;51.210;6.838;2022-10-18T05:49:40;9.50;;;7.20;;
27491;SDS011;14927;51.210;6.838;2022-10-18T05:52:24;10.25;;;7.03;;
27491;SDS011;14927;51.210;6.838;2022-10-18T05:55:09;9.27;;;7.35;;
27491;SDS011;14927;51.210;6.838;2022-10-18T05:57:53;7.70;;;6.70;;
27491;SDS011;14927;51.210;6.838;2022-10-18T06:00:38;9.68;;;6.97;;
27491;SDS011;14927;51.210;6.838;2022-10-18T06:03:22;9.05;;;7.38;;
27491;SDS011;14927;51.210;6.838;2022-10-18T06:06:08;11.10;;;7.45;;
27491;SDS011;14927;51.210;6.838;2022-10-18T06:08:55;10.38;;;7.50;;
27491;SDS011;14927;51.210;6.838;2022-10-18T06:11:39;9.65;;;7.35;;
27491;SDS011;14927;51.210;6.838;2022-10-18T06:14:24;8.85;;;6.90;;
27491;SDS011;14927;51.210;6.838;2022-10-18T06:17:09;8.93;;;7.30;;
27491;SDS011;14927;51.210;6.838;2022-10-18T06:19:53;9.82;;;7.72;;
27491;SDS011;14927;51.210;6.838;2022-10-18T06:22:38;12.68;;;7.57;;
27491;SDS011;14927;51.210;6.838;2022-10-18T06:25:23;7.93;;;6.10;;
27491;SDS011;14927;51.210;6.838;2022-10-18T06:28:07;9.18;;;7.18;;
27491;SDS011;14927;51.210;6.838;2022-10-18T06:30:52;12.35;;;7.35;;
27491;SDS011;14927;51.210;6.838;2022-10-18T06:33:37;15.55;;;7.38;;
27491;SDS011;14927;51.210;6.838;2022-10-18T06:36:21;9.30;;;6.82;;
27491;SDS011;14927;51.210;6.838;2022-10-18T06:39:06;13.65;;;7.78;;
27491;SDS011;14927;51.210;6.838;2022-10-18T06:41:51;10.50;;;6.93;;
27491;SDS011;14927;51.210;6.838;2022-10-18T06:44:36;8.70;;;7.43;;
27491;SDS011;14927;51.210;6.838;2022-10-18T06:47:21;11.60;;;7.00;;
27491;SDS011;14927;51.210;6.838;2022-10-18T06:50:05;10.52;;;8.00;;
27491;SDS011;14927;51.210;6.838;2022-10-18T06:52:51;11.27;;;7.53;;
27491;SDS011;14927;51.210;6.838;2022-10-18T06:55:35;15.77;;;7.80;;
27491;SDS011;14927;51.210;6.838;2022-10-18T06:58:22;8.48;;;7.25;;
27491;SDS011;14927;51.210;6.838;2022-10-18T07:01:07;11.05;;;7.70;;
27491;SDS011;14927;51.210;6.838;2022-10-18T07:03:59;15.45;;;8.07;;
27491;SDS011;14927;51.210;6.838;2022-10-18T07:06:44;13.20;;;8.10;;
27491;SDS011;14927;51.210;6.838;2022-10-18T07:09:28;11.00;;;8.13;;
27491;SDS011;14927;51.210;6.838;2022-10-18T07:12:13;13.82;;;8.23;;
27491;SDS011;14927;51.210;6.838;2022-10-18T07:15:00;12.60;;;9.05;;
27491;SDS011;14927;51.210;6.838;2022-10-18T07:17:46;11.85;;;8.98;;
27491;SDS011;14927;51.210;6.838;2022-10-18T07:20:31;11.70;;;8.75;;
27491;SDS011;14927;51.210;6.838;2022-10-18T07:23:16;14.20;;;10.27;;
27491;SDS011;14927;51.210;6.838;2022-10-18T07:26:11;12.32;;;9.23;;
27491;SDS011;14927;51.210;6.838;2022-10-18T07:29:13;14.07;;;9.50;;
27491;SDS011;14927;51.210;6.838;2022-10-18T07:31:58;15.68;;;11.07;;
27491;SDS011;14927;51.210;6.838;2022-10-18T07:34:43;21.60;;;14.98;;
27491;SDS011;14927;51.210;6.838;2022-10-18T07:37:27;23.35;;;15.55;;
27491;SDS011;14927;51.210;6.838;2022-10-18T07:40:12;22.98;;;15.43;;
27491;SDS011;14927;51.210;6.838;2022-10-18T07:42:57;27.30;;;17.40;;
27491;SDS011;14927;51.210;6.838;2022-10-18T07:45:49;25.13;;;17.27;;
27491;SDS011;14927;51.210;6.838;2022-10-18T07:48:39;23.33;;;17.85;;
27491;SDS011;14927;51.210;6.838;2022-10-18T07:51:24;25.65;;;18.10;;
27491;SDS011;14927;51.210;6.838;2022-10-18T07:54:09;26.40;;;18.65;;
27491;SDS011;14927;51.210;6.838;2022-10-18T07:56:57;29.00;;;18.55;;
27491;SDS011;14927;51.210;6.838;2022-10-18T07:59:41;30.33;;;18.48;;
27491;SDS011;14927;51.210;6.838;2022-10-18T08:02:29;29.77;;;18.38;;
27491;SDS011;14927;51.210;6.838;2022-10-18T08:05:13;35.10;;;21.58;;
27491;SDS011;14927;51.210;6.838;2022-10-18T08:07:58;34.25;;;21.23;;
27491;SDS011;14927;51.210;6.838;2022-10-18T08:10:43;35.40;;;19.85;;
27491;SDS011;14927;51.210;6.838;2022-10-18T08:13:27;32.28;;;20.83;;
27491;SDS011;14927;51.210;6.838;2022-10-18T08:16:19;34.13;;;21.88;;
27491;SDS011;14927;51.210;6.838;2022-10-18T08:19:07;37.55;;;22.27;;
27491;SDS011;14927;51.210;6.838;2022-10-18T08:21:51;36.35;;;22.95;;
27491;SDS011;14927;51.210;6.838;2022-10-18T08:24:36;39.60;;;24.55;;
27491;SDS011;14927;51.210;6.838;2022-10-18T08:27:20;37.58;;;23.02;;
27491;SDS011;14927;51.210;6.838;2022-10-18T08:30:05;38.17;;;23.88;;
27491;SDS011;14927;51.210;6.838;2022-10-18T08:32:52;42.17;;;24.48;;
27491;SDS011;14927;51.210;6.838;2022-10-18T08:35:36;44.17;;;24.20;;
27491;SDS011;14927;51.210;6.838;2022-10-18T08:38:21;40.72;;;24.50;;
27491;SDS011;14927;51.210;6.838;2022-10-18T08:44:29;45.03;;;26.52;;
27491;SDS011;14927;51.210;6.838;2022-10-18T08:47:28;44.33;;;24.65;;
27491;SDS011;14927;51.210;6.838;2022-10-18T08:50:28;48.63;;;26.30;;
27491;SDS011;14927;51.210;6.838;2022-10-18T08:56:36;44.40;;;26.90;;
27491;SDS011;14927;51.210;6.838;2022-10-18T08:59:27;50.92;;;28.38;;
27491;SDS011;14927;51.210;6.838;2022-10-18T09:05:39;47.00;;;29.17;;
27491;SDS011;14927;51.210;6.838;2022-10-18T09:22:13;56.08;;;34.28;;
27491;SDS011;14927;51.210;6.838;2022-10-18T09:25:21;52.47;;;33.63;;
27491;SDS011;14927;51.210;6.838;2022-10-18T09:37:12;48.10;;;32.28;;
27491;SDS011;14927;51.210;6.838;2022-10-18T09:40:12;54.20;;;34.00;;
27491;SDS011;14927;51.210;6.838;2022-10-18T09:43:11;48.03;;;31.33;;
27491;SDS011;14927;51.210;6.838;2022-10-18T09:46:02;52.53;;;33.03;;
27491;SDS011;14927;51.210;6.838;2022-10-18T09:49:00;46.42;;;31.52;;
27491;SDS011;14927;51.210;6.838;2022-10-18T09:51:49;43.50;;;30.80;;
27491;SDS011;14927;51.210;6.838;2022-10-18T09:54:41;44.97;;;29.63;;
27491;SDS011;14927;51.210;6.838;2022-10-18T09:57:36;43.70;;;29.67;;
27491;SDS011;14927;51.210;6.838;2022-10-18T10:03:40;38.03;;;27.02;;
27491;SDS011;14927;51.210;6.838;2022-10-18T10:06:29;39.63;;;28.65;;
27491;SDS011;14927;51.210;6.838;2022-10-18T10:09:19;39.15;;;28.20;;
27491;SDS011;14927;51.210;6.838;2022-10-18T10:12:29;36.53;;;26.30;;
27491;SDS011;14927;51.210;6.838;2022-10-18T10:15:23;39.87;;;27.90;;
27491;SDS011;14927;51.210;6.838;2022-10-18T10:18:26;41.10;;;27.98;;
27491;SDS011;14927;51.210;6.838;2022-10-18T10:21:18;35.28;;;27.05;;
27491;SDS011;14927;51.210;6.838;2022-10-18T10:24:04;43.67;;;30.77;;
27491;SDS011;14927;51.210;6.838;2022-10-18T10:26:49;38.78;;;27.77;;
27491;SDS011;14927;51.210;6.838;2022-10-18T10:29:48;39.85;;;28.98;;
27491;SDS011;14927;51.210;6.838;2022-10-18T10:32:48;45.63;;;32.60;;
27491;SDS011;14927;51.210;6.838;2022-10-18T10:35:36;46.88;;;30.00;;
27491;SDS011;14927;51.210;6.838;2022-10-18T10:38:25;43.72;;;31.60;;
27491;SDS011;14927;51.210;6.838;2022-10-18T10:41:17;69.88;;;43.90;;
27491;SDS011;14927;51.210;6.838;2022-10-18T10:44:13;87.80;;;50.20;;
27491;SDS011;14927;51.210;6.838;2022-10-18T10:47:04;85.97;;;51.72;;
27491;SDS011;14927;51.210;6.838;2022-10-18T10:49:49;94.05;;;55.17;;
27491;SDS011;14927;51.210;6.838;2022-10-18T10:52:34;89.03;;;52.88;;
27491;SDS011;14927;51.210;6.838;2022-10-18T10:55:33;93.40;;;54.50;;
27491;SDS011;14927;51.210;6.838;2022-10-18T10:58:19;95.18;;;53.28;;
27491;SDS011;14927;51.210;6.838;2022-10-18T11:01:22;98.63;;;55.47;;
27491;SDS011;14927;51.210;6.838;2022-10-18T11:04:26;98.32;;;53.50;;
27491;SDS011;14927;51.210;6.838;2022-10-18T11:16:24;83.47;;;46.78;;
27491;SDS011;14927;51.210;6.838;2022-10-18T11:19:31;85.28;;;46.63;;
27491;SDS011;14927;51.210;6.838;2022-10-18T11:23:00;73.57;;;44.50;;
27491;SDS011;14927;51.210;6.838;2022-10-18T11:29:14;69.50;;;41.65;;
27491;SDS011;14927;51.210;6.838;2022-10-18T11:32:20;75.80;;;42.38;;
27491;SDS011;14927;51.210;6.838;2022-10-18T11:39:07;74.72;;;42.55;;
27491;SDS011;14927;51.210;6.838;2022-10-18T11:42:26;54.20;;;31.85;;
27491;SDS011;14927;51.210;6.838;2022-10-18T11:45:31;51.53;;;31.42;;
27491;SDS011;14927;51.210;6.838;2022-10-18T11:55:15;46.08;;;28.67;;
27491;SDS011;14927;51.210;6.838;2022-10-18T12:02:14;41.38;;;24.20;;
27491;SDS011;14927;51.210;6.838;2022-10-18T12:05:15;34.95;;;21.60;;
27491;SDS011;14927;51.210;6.838;2022-10-18T12:08:01;36.97;;;22.05;;
27491;SDS011;14927;51.210;6.838;2022-10-18T12:10:53;30.73;;;18.95;;
27491;SDS011;14927;51.210;6.838;2022-10-18T12:16:33;24.92;;;16.58;;
27491;SDS011;14927;51.210;6.838;2022-10-18T12:19:21;23.88;;;15.85;;
27491;SDS011;14927;51.210;6.838;2022-10-18T12:22:13;24.85;;;15.45;;
27491;SDS011;14927;51.210;6.838;2022-10-18T12:25:14;24.60;;;14.32;;
27491;SDS011;14927;51.210;6.838;2022-10-18T12:31:30;17.73;;;12.63;;
27491;SDS011;14927;51.210;6.838;2022-10-18T12:37:41;20.40;;;12.77;;
27491;SDS011;14927;51.210;6.838;2022-10-18T12:40:50;17.40;;;12.82;;
27491;SDS011;14927;51.210;6.838;2022-10-18T12:43:37;21.08;;;11.65;;
27491;SDS011;14927;51.210;6.838;2022-10-18T12:46:22;20.35;;;11.15;;
27491;SDS011;14927;51.210;6.838;2022-10-18T12:49:08;14.75;;;10.38;;
27491;SDS011;14927;51.210;6.838;2022-10-18T12:51:59;14.50;;;9.85;;
27491;SDS011;14927;51.210;6.838;2022-10-18T13:03:28;12.35;;;6.75;;
27491;SDS011;14927;51.210;6.838;2022-10-18T13:06:23;18.88;;;6.35;;
27491;SDS011;14927;51.210;6.838;2022-10-18T13:09:14;9.63;;;5.53;;
27491;SDS011;14927;51.210;6.838;2022-10-18T13:18:13;11.82;;;6.05;;
27491;SDS011;14927;51.210;6.838;2022-10-18T13:21:12;7.57;;;4.30;;
27491;SDS011;14927;51.210;6.838;2022-10-18T13:24:23;7.93;;;3.95;;
27491;SDS011;14927;51.210;6.838;2022-10-18T13:30:29;12.15;;;5.07;;
27491;SDS011;14927;51.210;6.838;2022-10-18T13:33:31;15.73;;;6.78;;
27491;SDS011;14927;51.210;6.838;2022-10-18T13:36:24;11.02;;;6.50;;
27491;SDS011;14927;51.210;6.838;2022-10-18T13:39:17;14.35;;;7.00;;
27491;SDS011;14927;51.210;6.838;2022-10-18T13:48:43;12.52;;;7.10;;
27491;SDS011;14927;51.210;6.838;2022-10-18T14:01:29;9.45;;;5.35;;
27491;SDS011;14927;51.210;6.838;2022-10-18T14:08:02;15.25;;;5.88;;
27491;SDS011;14927;51.210;6.838;2022-10-18T14:13:58;9.80;;;4.68;;
27491;SDS011;14927;51.210;6.838;2022-10-18T14:17:24;6.78;;;4.10;;
27491;SDS011;14927;51.210;6.838;2022-10-18T14:23:16;8.23;;;4.13;;
27491;SDS011;14927;51.210;6.838;2022-10-18T14:26:05;8.00;;;4.22;;
27491;SDS011;14927;51.210;6.838;2022-10-18T14:29:05;12.20;;;4.63;;
27491;SDS011;14927;51.210;6.838;2022-10-18T14:32:00;11.68;;;4.70;;
27491;SDS011;14927;51.210;6.838;2022-10-18T14:34:45;11.98;;;4.03;;
27491;SDS011;14927;51.210;6.838;2022-10-18T14:37:33;8.75;;;3.67;;
27491;SDS011;14927;51.210;6.838;2022-10-18T14:40:35;11.63;;;3.78;;
27491;SDS011;14927;51.210;6.838;2022-10-18T14:43:24;12.80;;;4.43;;
27491;SDS011;14927;51.210;6.838;2022-10-18T14:49:08;12.65;;;4.85;;
27491;SDS011;14927;51.210;6.838;2022-10-18T14:51:56;13.57;;;5.07;;
27491;SDS011;14927;51.210;6.838;2022-10-18T14:54:42;10.65;;;4.75;;
27491;SDS011;14927;51.210;6.838;2022-10-18T14:57:28;14.75;;;4.70;;
27491;SDS011;14927;51.210;6.838;2022-10-18T15:00:24;13.02;;;4.97;;
27491;SDS011;14927;51.210;6.838;2022-10-18T15:03:19;10.18;;;4.63;;
27491;SDS011;14927;51.210;6.838;2022-10-18T15:06:04;11.65;;;4.18;;
27491;SDS011;14927;51.210;6.838;2022-10-18T15:08:55;11.50;;;3.97;;
27491;SDS011;14927;51.210;6.838;2022-10-18T15:11:41;12.18;;;3.67;;
27491;SDS011;14927;51.210;6.838;2022-10-18T15:14:27;10.57;;;4.25;;
27491;SDS011;14927;51.210;6.838;2022-10-18T15:17:15;13.23;;;4.18;;
27491;SDS011;14927;51.210;6.838;2022-10-18T15:20:21;11.48;;;4.35;;
27491;SDS011;14927;51.210;6.838;2022-10-18T15:23:20;13.27;;;3.72;;
27491;SDS011;14927;51.210;6.838;2022-10-18T15:26:13;8.18;;;2.90;;
27491;SDS011;14927;51.210;6.838;2022-10-18T15:29:14;14.05;;;3.80;;
27491;SDS011;14927;51.210;6.838;2022-10-18T15:32:11;13.10;;;4.18;;
27491;SDS011;14927;51.210;6.838;2022-10-18T15:35:18;9.18;;;3.78;;
27491;SDS011;14927;51.210;6.838;2022-10-18T15:38:24;13.43;;;3.50;;
27491;SDS011;14927;51.210;6.838;2022-10-18T15:45:01;32.05;;;5.10;;
27491;SDS011;14927;51.210;6.838;2022-10-18T15:47:39;9.48;;;3.30;;
27491;SDS011;14927;51.210;6.838;2022-10-18T15:51:00;9.75;;;3.47;;
27491;SDS011;14927;51.210;6.838;2022-10-18T15:56:33;8.93;;;3.08;;
27491;SDS011;14927;51.210;6.838;2022-10-18T15:59:20;8.80;;;2.75;;
27491;SDS011;14927;51.210;6.838;2022-10-18T16:02:11;9.80;;;2.58;;
27491;SDS011;14927;51.210;6.838;2022-10-18T16:04:58;10.88;;;3.30;;
27491;SDS011;14927;51.210;6.838;2022-10-18T16:07:42;9.40;;;3.28;;
27491;SDS011;14927;51.210;6.838;2022-10-18T16:10:27;8.02;;;2.47;;
27491;SDS011;14927;51.210;6.838;2022-10-18T16:13:12;8.07;;;2.67;;
27491;SDS011;14927;51.210;6.838;2022-10-18T16:15:56;11.15;;;2.95;;
27491;SDS011;14927;51.210;6.838;2022-10-18T16:18:42;8.98;;;2.90;;
27491;SDS011;14927;51.210;6.838;2022-10-18T16:21:28;6.57;;;2.67;;
27491;SDS011;14927;51.210;6.838;2022-10-18T16:24:16;10.33;;;2.87;;
27491;SDS011;14927;51.210;6.838;2022-10-18T16:27:01;11.07;;;3.03;;
27491;SDS011;14927;51.210;6.838;2022-10-18T16:29:46;12.13;;;2.90;;
27491;SDS011;14927;51.210;6.838;2022-10-18T16:32:30;9.73;;;3.10;;
27491;SDS011;14927;51.210;6.838;2022-10-18T16:35:15;7.80;;;2.90;;
27491;SDS011;14927;51.210;6.838;2022-10-18T16:38:00;9.52;;;3.42;;
27491;SDS011;14927;51.210;6.838;2022-10-18T16:40:44;10.77;;;3.50;;
27491;SDS011;14927;51.210;6.838;2022-10-18T16:43:29;12.57;;;3.55;;
27491;SDS011;14927;51.210;6.838;2022-10-18T16:49:00;12.35;;;3.15;;
27491;SDS011;14927;51.210;6.838;2022-10-18T16:51:46;8.48;;;3.33;;
27491;SDS011;14927;51.210;6.838;2022-10-18T16:54:31;9.57;;;4.10;;
27491;SDS011;14927;51.210;6.838;2022-10-18T16:57:16;12.82;;;4.22;;
27491;SDS011;14927;51.210;6.838;2022-10-18T17:00:00;9.65;;;3.70;;
27491;SDS011;14927;51.210;6.838;2022-10-18T17:02:45;11.23;;;3.70;;
27491;SDS011;14927;51.210;6.838;2022-10-18T17:05:31;9.10;;;3.72;;
27491;SDS011;14927;51.210;6.838;2022-10-18T17:08:17;10.05;;;4.75;;
27491;SDS011;14927;51.210;6.838;2022-10-18T17:11:08;13.35;;;4.45;;
27491;SDS011;14927;51.210;6.838;2022-10-18T17:13:53;12.43;;;4.57;;
27491;SDS011;14927;51.210;6.838;2022-10-18T17:16:38;12.05;;;4.28;;
27491;SDS011;14927;51.210;6.838;2022-10-18T17:19:23;13.43;;;4.15;;
27491;SDS011;14927;51.210;6.838;2022-10-18T17:22:07;11.95;;;4.28;;
27491;SDS011;14927;51.210;6.838;2022-10-18T17:24:52;15.57;;;4.55;;
27491;SDS011;14927;51.210;6.838;2022-10-18T17:27:37;17.50;;;5.90;;
27491;SDS011;14927;51.210;6.838;2022-10-18T17:30:22;10.23;;;4.57;;
27491;SDS011;14927;51.210;6.838;2022-10-18T17:33:07;19.42;;;7.65;;
27491;SDS011;14927;51.210;6.838;2022-10-18T17:35:53;12.23;;;5.45;;
27491;SDS011;14927;51.210;6.838;2022-10-18T17:38:38;14.05;;;5.70;;
27491;SDS011;14927;51.210;6.838;2022-10-18T17:41:22;10.02;;;5.00;;
27491;SDS011;14927;51.210;6.838;2022-10-18T17:44:13;12.60;;;5.38;;
27491;SDS011;14927;51.210;6.838;2022-10-18T17:46:59;17.55;;;5.40;;
27491;SDS011;14927;51.210;6.838;2022-10-18T17:49:43;15.70;;;4.63;;
27491;SDS011;14927;51.210;6.838;2022-10-18T17:52:28;14.55;;;4.78;;
27491;SDS011;14927;51.210;6.838;2022-10-18T17:55:13;10.85;;;4.40;;
27491;SDS011;14927;51.210;6.838;2022-10-18T17:57:58;20.42;;;4.63;;
27491;SDS011;14927;51.210;6.838;2022-10-18T18:00:43;13.43;;;4.82;;
27491;SDS011;14927;51.210;6.838;2022-10-18T18:03:27;10.52;;;4.32;;
27491;SDS011;14927;51.210;6.838;2022-10-18T18:06:22;13.00;;;4.10;;
27491;SDS011;14927;51.210;6.838;2022-10-18T18:09:17;9.40;;;4.07;;
27491;SDS011;14927;51.210;6.838;2022-10-18T18:12:04;17.63;;;5.20;;
27491;SDS011;14927;51.210;6.838;2022-10-18T18:14:48;18.95;;;5.28;;
27491;SDS011;14927;51.210;6.838;2022-10-18T18:17:33;13.93;;;5.65;;
27491;SDS011;14927;51.210;6.838;2022-10-18T18:20:18;17.85;;;4.95;;
27491;SDS011;14927;51.210;6.838;2022-10-18T18:23:03;14.18;;;5.00;;
27491;SDS011;14927;51.210;6.838;2022-10-18T18:25:54;15.30;;;5.03;;
27491;SDS011;14927;51.210;6.838;2022-10-18T18:28:40;13.63;;;4.75;;
27491;SDS011;14927;51.210;6.838;2022-10-18T18:31:25;15.68;;;4.68;;
27491;SDS011;14927;51.210;6.838;2022-10-18T18:34:10;16.38;;;4.95;;
27491;SDS011;14927;51.210;6.838;2022-10-18T18:36:55;14.60;;;4.78;;
27491;SDS011;14927;51.210;6.838;2022-10-18T18:39:40;13.77;;;4.93;;
27491;SDS011;14927;51.210;6.838;2022-10-18T18:42:24;10.00;;;4.05;;
27491;SDS011;14927;51.210;6.838;2022-10-18T18:45:09;12.20;;;4.22;;
27491;SDS011;14927;51.210;6.838;2022-10-18T18:47:55;11.95;;;4.10;;
27491;SDS011;14927;51.210;6.838;2022-10-18T18:50:39;16.90;;;4.75;;
27491;SDS011;14927;51.210;6.838;2022-10-18T18:53:32;10.00;;;4.80;;
27491;SDS011;14927;51.210;6.838;2022-10-18T18:56:18;7.35;;;4.38;;
27491;SDS011;14927;51.210;6.838;2022-10-18T18:59:07;10.68;;;4.85;;
27491;SDS011;14927;51.210;6.838;2022-10-18T19:01:53;12.23;;;4.32;;
27491;SDS011;14927;51.210;6.838;2022-10-18T19:04:37;10.80;;;3.40;;
27491;SDS011;14927;51.210;6.838;2022-10-18T19:07:23;16.77;;;4.53;;
27491;SDS011;14927;51.210;6.838;2022-10-18T19:10:08;8.32;;;3.85;;
27491;SDS011;14927;51.210;6.838;2022-10-18T19:12:52;12.27;;;4.53;;
27491;SDS011;14927;51.210;6.838;2022-10-18T19:15:37;15.88;;;4.13;;
27491;SDS011;14927;51.210;6.838;2022-10-18T19:18:22;15.52;;;4.40;;
27491;SDS011;14927;51.210;6.838;2022-10-18T19:21:06;16.05;;;4.57;;
27491;SDS011;14927;51.210;6.838;2022-10-18T19:23:51;18.10;;;3.83;;
27491;SDS011;14927;51.210;6.838;2022-10-18T19:26:40;10.85;;;4.35;;